Time;durP1;ratioP1;P1;durP2;ratioP2;P2;SDS_P1;SDS_P2;PMS_P1;PMS_P2;Temp;Humidity;BMP_temperature;BMP_pressure;BME280_temperature;BME280_humidity;BME280_pressure;Samples;Min_cycle;Max_cycle;Signal;HPM_P1;HPM_P2
2021/03/19 00:00:09;;;;;;;20.20;13.97;;;;;;;0.10;100.00;95924.41;1284864;23;20012;-78
2021/03/19 00:00:39;;;;;;;18.50;13.90;;;;;;;0.06;100.00;95917.19;1284975;23;20059;-78
2021/03/19 00:01:09;;;;;;;18.90;14.37;;;;;;;-0.02;100.00;95916.38;1285072;23;20023;-78
2021/03/19 00:01:40;;;;;;;21.40;14.57;;;;;;;-0.04;100.00;95912.34;1284980;23;20004;-79
2021/03/19 00:02:11;;;;;;;21.30;14.87;;;;;;;-0.01;100.00;95920.59;1285161;23;20004;-78
2021/03/19 00:02:41;;;;;;;20.03;14.50;;;;;;;0.04;100.00;95924.44;1285139;23;20130;-78
2021/03/19 00:03:11;;;;;;;19.53;14.60;;;;;;;-0.03;100.00;95917.38;1285236;23;20016;-78
2021/03/19 00:03:42;;;;;;;21.80;14.80;;;;;;;-0.04;100.00;95925.47;1284891;23;20012;-79
2021/03/19 00:04:12;;;;;;;20.30;14.80;;;;;;;0.04;100.00;95919.97;1285135;23;20004;-77
2021/03/19 00:04:43;;;;;;;23.90;16.30;;;;;;;0.10;100.00;95921.78;1285057;23;20004;-77
2021/03/19 00:05:14;;;;;;;23.00;15.17;;;;;;;0.06;100.00;95917.97;1285139;23;20008;-79
2021/03/19 00:05:45;;;;;;;21.70;14.50;;;;;;;-0.02;100.00;95912.94;1285132;23;20058;-78
2021/03/19 00:06:15;;;;;;;21.83;14.17;;;;;;;-0.04;100.00;95913.16;1285047;23;20051;-78
2021/03/19 00:06:46;;;;;;;18.10;14.27;;;;;;;0.01;100.00;95922.25;1285007;23;20004;-78
2021/03/19 00:07:17;;;;;;;25.20;15.17;;;;;;;-0.02;100.00;95911.09;1284771;23;20005;-78
2021/03/19 00:07:54;;;;;;;20.87;14.50;;;;;;;0.04;100.00;95913.94;1284740;23;20454;-79
2021/03/19 00:08:24;;;;;;;22.15;15.02;;;;;;;0.06;100.00;95919.81;1284745;23;20001;-78
2021/03/19 00:08:55;;;;;;;24.30;16.60;;;;;;;0.07;100.00;95919.59;1284903;23;20015;-79
2021/03/19 00:09:26;;;;;;;22.45;14.95;;;;;;;0.12;100.00;95916.34;1285147;23;20433;-78
2021/03/19 00:09:56;;;;;;;21.57;14.93;;;;;;;0.12;100.00;95917.16;1285075;23;20000;-79
2021/03/19 00:10:28;;;;;;;24.90;16.47;;;;;;;0.18;100.00;95912.88;1284910;23;20007;-77
2021/03/19 00:10:59;;;;;;;23.27;16.08;;;;;;;0.19;100.00;95917.94;1285087;23;20000;-77
2021/03/19 00:11:29;;;;;;;26.27;15.30;;;;;;;0.21;100.00;95915.13;1285107;23;19992;-77
2021/03/19 00:12:00;;;;;;;21.50;15.10;;;;;;;0.21;100.00;95917.75;1285018;23;20442;-78
2021/03/19 00:12:30;;;;;;;20.57;14.33;;;;;;;0.22;100.00;95906.22;1285184;23;19997;-79
2021/03/19 00:13:02;;;;;;;22.30;15.67;;;;;;;0.25;100.00;95913.66;1284984;23;20335;-77
2021/03/19 00:13:33;;;;;;;21.42;16.25;;;;;;;0.28;100.00;95915.88;1284758;23;20003;-78
2021/03/19 00:14:04;;;;;;;24.40;15.83;;;;;;;0.27;100.00;95913.47;1284815;23;20008;-79
2021/03/19 00:14:34;;;;;;;21.25;14.82;;;;;;;0.24;100.00;95912.06;1285208;23;19997;-78
2021/03/19 00:15:05;;;;;;;23.93;15.00;;;;;;;0.27;100.00;95911.66;1290828;23;20054;-79
2021/03/19 00:15:36;;;;;;;24.33;16.30;;;;;;;0.32;100.00;95908.41;1291040;23;20414;-78
2021/03/19 00:16:07;;;;;;;21.63;16.03;;;;;;;0.21;100.00;95912.50;1290879;23;20050;-79
2021/03/19 00:16:37;;;;;;;20.88;15.10;;;;;;;0.18;100.00;95918.16;1290573;23;20004;-78
2021/03/19 00:17:08;;;;;;;22.63;15.73;;;;;;;0.13;100.00;95910.88;1284970;23;19996;-78
2021/03/19 00:17:39;;;;;;;20.47;15.73;;;;;;;0.09;100.00;95908.88;1285070;23;20411;-78
2021/03/19 00:18:09;;;;;;;23.23;15.90;;;;;;;0.07;100.00;95914.34;1285161;23;20047;-78
2021/03/19 00:18:39;;;;;;;22.13;16.10;;;;;;;0.08;100.00;95909.88;1285161;23;20001;-78
2021/03/19 00:19:10;;;;;;;26.30;18.90;;;;;;;0.09;100.00;95914.13;1285014;23;20115;-77
2021/03/19 00:19:40;;;;;;;23.80;16.63;;;;;;;0.08;100.00;95912.50;1284875;23;20445;-78
2021/03/19 00:20:11;;;;;;;24.63;16.90;;;;;;;0.06;100.00;95911.91;1284880;23;20005;-77
2021/03/19 00:20:43;;;;;;;24.17;17.57;;;;;;;0.08;100.00;95912.50;1284880;23;20042;-79
2021/03/19 00:21:14;;;;;;;21.33;15.80;;;;;;;0.10;100.00;95916.53;1285139;23;20000;-79
2021/03/19 00:21:44;;;;;;;23.87;16.77;;;;;;;0.11;100.00;95910.28;1285081;23;20047;-79
2021/03/19 00:22:14;;;;;;;24.40;17.57;;;;;;;0.08;100.00;95905.44;1285100;23;20414;-78
2021/03/19 00:22:45;;;;;;;28.00;18.03;;;;;;;0.08;100.00;95907.25;1285034;23;20354;-79
2021/03/19 00:23:15;;;;;;;25.10;18.90;;;;;;;0.03;100.00;95909.69;1285023;23;20000;-79
2021/03/19 00:23:46;;;;;;;27.60;20.57;;;;;;;0.03;100.00;95905.25;1284925;23;20000;-78
2021/03/19 00:24:16;;;;;;;26.33;18.73;;;;;;;-0.07;100.00;95905.66;1285239;23;20000;-79
2021/03/19 00:24:48;;;;;;;27.40;19.47;;;;;;;-0.02;100.00;95905.03;1285098;23;20008;-78
2021/03/19 00:25:18;;;;;;;31.60;21.95;;;;;;;-0.10;100.00;95903.47;1285077;23;20000;-78
2021/03/19 00:25:49;;;;;;;29.67;20.77;;;;;;;-0.10;100.00;95906.09;1284955;23;20022;-79
2021/03/19 00:26:19;;;;;;;27.43;19.03;;;;;;;-0.13;100.00;95908.31;1285073;23;20032;-78
2021/03/19 00:26:49;;;;;;;27.50;20.07;;;;;;;-0.15;100.00;95908.53;1285068;23;20043;-78
2021/03/19 00:27:20;;;;;;;26.83;19.43;;;;;;;-0.09;100.00;95906.91;1285050;23;20005;-78
2021/03/19 00:27:51;;;;;;;28.93;19.40;;;;;;;-0.12;100.00;95900.22;1285070;23;20326;-78
2021/03/19 00:28:21;;;;;;;32.80;21.37;;;;;;;-0.18;100.00;95908.13;1285230;23;20426;-78
2021/03/19 00:28:51;;;;;;;31.37;22.27;;;;;;;-0.19;100.00;95907.31;1284960;23;20446;-80
2021/03/19 00:29:22;;;;;;;34.43;22.63;;;;;;;-0.18;100.00;95905.50;1285125;23;20008;-77
2021/03/19 00:29:52;;;;;;;29.67;21.43;;;;;;;-0.19;100.00;95907.31;1284933;23;20395;-78
2021/03/19 00:30:23;;;;;;;29.93;21.37;;;;;;;-0.15;100.00;95907.72;1285027;23;20011;-77
2021/03/19 00:30:53;;;;;;;29.63;20.03;;;;;;;-0.15;100.00;95903.28;1284967;23;20001;-78
2021/03/19 00:31:24;;;;;;;29.23;20.83;;;;;;;-0.13;100.00;95898.59;1284928;23;20071;-78
2021/03/19 00:31:54;;;;;;;27.83;20.53;;;;;;;-0.09;100.00;95905.06;1284869;23;20001;-78
2021/03/19 00:32:25;;;;;;;32.70;23.17;;;;;;;-0.10;100.00;95898.22;1284809;23;19997;-77
2021/03/19 00:32:55;;;;;;;25.63;20.07;;;;;;;-0.05;100.00;95895.78;1284651;23;20011;-77
2021/03/19 00:33:26;;;;;;;26.93;19.93;;;;;;;-0.01;100.00;95899.56;1284898;23;20334;-78
2021/03/19 00:33:56;;;;;;;29.57;19.80;;;;;;;-0.08;100.00;95900.63;1284836;23;20040;-78
2021/03/19 00:34:27;;;;;;;31.27;19.60;;;;;;;-0.10;100.00;95900.03;1284917;23;20050;-78
2021/03/19 00:34:57;;;;;;;28.80;21.17;;;;;;;-0.06;100.00;95907.28;1284485;23;20000;-78
2021/03/19 00:35:27;;;;;;;28.37;19.77;;;;;;;-0.07;100.00;95903.03;1284458;23;19992;-77
2021/03/19 00:35:58;;;;;;;34.63;20.87;;;;;;;-0.10;100.00;95895.59;1284379;23;20007;-77
2021/03/19 00:36:28;;;;;;;29.57;21.07;;;;;;;-0.10;100.00;95897.41;1284461;23;20001;-76
2021/03/19 00:36:59;;;;;;;28.47;20.17;;;;;;;-0.10;100.00;95895.59;1284772;23;20016;-77
2021/03/19 00:37:29;;;;;;;24.00;19.20;;;;;;;-0.04;100.00;95894.75;1284942;23;20001;-77
2021/03/19 00:38:00;;;;;;;27.13;19.50;;;;;;;-0.04;100.00;95900.00;1284685;23;20395;-78
2021/03/19 00:38:30;;;;;;;27.57;18.97;;;;;;;-0.03;100.00;95896.34;1284960;23;19992;-77
2021/03/19 00:39:01;;;;;;;27.87;20.83;;;;;;;0.01;100.00;95891.50;1284718;23;20030;-77
2021/03/19 00:39:31;;;;;;;27.37;20.40;;;;;;;-0.04;100.00;95896.56;1284853;23;20005;-77
2021/03/19 00:40:07;;;;;;;32.20;22.33;;;;;;;-0.02;100.00;95894.53;1284828;23;20008;-77
2021/03/19 00:40:38;;;;;;;39.13;23.90;;;;;;;0.02;100.00;95892.31;1284837;23;20004;-77
2021/03/19 00:41:09;;;;;;;38.55;24.05;;;;;;;-0.01;100.00;95889.06;1284982;23;20473;-77
2021/03/19 00:41:39;;;;;;;35.83;23.37;;;;;;;-0.02;100.00;95890.09;1284436;23;20012;-76
2021/03/19 00:42:09;;;;;;;32.20;23.30;;;;;;;-0.01;100.00;95893.53;1278107;23;20331;-76
2021/03/19 00:42:40;;;;;;;31.73;21.30;;;;;;;-0.01;100.00;95891.69;1278235;23;20435;-78
2021/03/19 00:43:11;;;;;;;35.77;23.67;;;;;;;0.05;100.00;95889.25;1278340;23;20434;-77
2021/03/19 00:43:42;;;;;;;38.47;23.05;;;;;;;0.02;100.00;95893.13;1284471;23;19993;-77
2021/03/19 00:44:12;;;;;;;38.03;25.20;;;;;;;0.01;100.00;95888.88;1284848;23;20005;-77
2021/03/19 00:44:43;;;;;;;32.20;22.30;;;;;;;0.01;100.00;95894.13;1284794;23;20117;-77
2021/03/19 00:45:14;;;;;;;41.63;25.10;;;;;;;0.02;100.00;95881.81;1284796;23;20004;-77
2021/03/19 00:45:45;;;;;;;32.88;23.80;;;;;;;0.06;100.00;95888.28;1284772;23;20019;-77
2021/03/19 00:46:15;;;;;;;31.77;23.27;;;;;;;0.06;100.00;95893.53;1284751;23;20005;-77
2021/03/19 00:46:45;;;;;;;38.37;24.23;;;;;;;0.08;100.00;95888.84;1284861;23;19996;-77
2021/03/19 00:47:16;;;;;;;34.23;23.87;;;;;;;0.10;100.00;95886.81;1284927;23;20004;-77
2021/03/19 00:47:46;;;;;;;31.30;21.87;;;;;;;0.11;100.00;95888.47;1284292;23;20027;-77
2021/03/19 00:48:17;;;;;;;30.27;21.50;;;;;;;0.15;100.00;95887.00;1284468;23;20009;-77
2021/03/19 00:48:47;;;;;;;29.70;20.90;;;;;;;0.17;100.00;95885.81;1284409;23;20300;-76
2021/03/19 00:49:17;;;;;;;36.00;23.93;;;;;;;0.15;100.00;95894.88;1284489;23;20433;-76
2021/03/19 00:49:48;;;;;;;32.13;22.83;;;;;;;0.15;100.00;95884.38;1284810;23;20291;-75
2021/03/19 00:50:35;;;;;;;35.33;24.30;;;;;;;0.14;100.00;95885.41;1290590;23;20007;-76
2021/03/19 00:51:05;;;;;;;32.72;23.23;;;;;;;0.16;100.00;95880.75;1290619;23;20031;-77
2021/03/19 00:51:36;;;;;;;36.07;24.80;;;;;;;0.17;100.00;95885.00;1290840;23;20023;-76
2021/03/19 00:52:06;;;;;;;30.87;22.50;;;;;;;0.16;100.00;95886.81;1288097;23;19996;-76
2021/03/19 00:52:37;;;;;;;30.37;22.30;;;;;;;0.11;100.00;95883.19;1279880;23;20036;-77
2021/03/19 00:53:08;;;;;;;28.25;20.77;;;;;;;0.15;100.00;95889.63;1279687;23;19997;-77
2021/03/19 00:53:38;;;;;;;30.17;21.63;;;;;;;0.09;100.00;95887.84;1279474;23;20024;-76
2021/03/19 00:54:10;;;;;;;33.17;23.10;;;;;;;0.05;100.00;95889.25;1279936;23;19997;-77
2021/03/19 00:54:40;;;;;;;32.75;21.08;;;;;;;0.01;100.00;95883.63;1286702;23;20000;-77
2021/03/19 00:55:13;;;;;;;34.80;24.13;;;;;;;0.07;100.00;95882.00;1286724;23;20403;-77
2021/03/19 00:55:44;;;;;;;34.47;23.70;;;;;;;0.09;100.00;95887.84;1286677;23;19992;-76
2021/03/19 00:56:14;;;;;;;32.50;22.83;;;;;;;0.08;100.00;95884.41;1286765;23;20075;-77
2021/03/19 00:56:44;;;;;;;29.50;22.63;;;;;;;0.08;100.00;95878.34;1287013;23;19996;-77
2021/03/19 00:57:15;;;;;;;31.10;22.17;;;;;;;0.09;100.00;95877.31;1286149;23;20000;-76
2021/03/19 00:57:45;;;;;;;34.13;23.23;;;;;;;0.00;100.00;95882.03;1286808;23;20004;-77
2021/03/19 00:58:16;;;;;;;35.20;23.97;;;;;;;-0.10;100.00;95882.44;1286125;23;20001;-76
2021/03/19 00:58:46;;;;;;;32.50;23.87;;;;;;;-0.08;100.00;95877.78;1286296;23;20008;-78
2021/03/19 00:59:16;;;;;;;34.60;23.20;;;;;;;-0.10;100.00;95871.94;1286323;23;20012;-77
2021/03/19 00:59:47;;;;;;;31.23;22.93;;;;;;;-0.09;100.00;95873.53;1286511;23;20012;-77
2021/03/19 01:00:18;;;;;;;31.63;23.40;;;;;;;-0.08;100.00;95880.41;1286490;23;20092;-78
2021/03/19 01:00:48;;;;;;;33.25;23.45;;;;;;;-0.15;100.00;95869.13;1286916;23;20011;-77
2021/03/19 01:01:19;;;;;;;34.13;23.90;;;;;;;-0.09;100.00;95881.44;1286681;23;20050;-77
2021/03/19 01:01:49;;;;;;;35.57;24.87;;;;;;;-0.10;100.00;95874.56;1286877;23;20050;-77
2021/03/19 01:02:20;;;;;;;37.63;25.20;;;;;;;-0.11;100.00;95875.56;1286224;23;20062;-77
2021/03/19 01:02:50;;;;;;;34.43;24.70;;;;;;;-0.09;100.00;95870.91;1286597;23;19998;-77
2021/03/19 01:03:20;;;;;;;34.63;24.10;;;;;;;-0.05;100.00;95884.47;1286539;23;20000;-77
2021/03/19 01:03:51;;;;;;;31.40;23.43;;;;;;;-0.03;100.00;95874.53;1286915;23;20059;-77
2021/03/19 01:04:21;;;;;;;36.20;24.00;;;;;;;-0.13;100.00;95872.34;1286942;23;20011;-77
2021/03/19 01:04:55;;;;;;;33.67;25.00;;;;;;;-0.09;100.00;95876.16;1286555;23;20092;-77
2021/03/19 01:05:33;;;;;;;35.65;22.70;;;;;;;-0.08;100.00;95874.34;1286027;23;19997;-77
2021/03/19 01:06:04;;;;;;;32.42;22.00;;;;;;;-0.09;100.00;95876.16;1292314;23;20393;-78
2021/03/19 01:06:34;;;;;;;31.97;23.03;;;;;;;-0.13;100.00;95872.34;1292949;23;20036;-77
2021/03/19 01:07:05;;;;;;;33.07;23.33;;;;;;;-0.16;100.00;95875.34;1292520;23;20000;-77
2021/03/19 01:07:35;;;;;;;33.73;24.00;;;;;;;-0.14;100.00;95873.34;1291715;23;20477;-78
2021/03/19 01:08:06;;;;;;;33.13;23.53;;;;;;;-0.14;100.00;95869.91;1292613;23;20031;-77
2021/03/19 01:08:37;;;;;;;34.08;24.15;;;;;;;-0.15;100.00;95871.75;1292489;23;20000;-77
2021/03/19 01:09:07;;;;;;;32.97;23.00;;;;;;;-0.27;100.00;95866.28;1292038;23;20046;-78
2021/03/19 01:09:38;;;;;;;34.63;24.40;;;;;;;-0.33;100.00;95868.94;1292100;23;20011;-77
2021/03/19 01:10:11;;;;;;;32.33;23.90;;;;;;;-0.39;100.00;95870.56;1286539;23;20005;-77
2021/03/19 01:10:51;;;;;;;34.22;24.58;;;;;;;-0.33;100.00;95866.31;1286565;23;20414;-78
2021/03/19 01:11:22;;;;;;;35.53;25.42;;;;;;;-0.28;100.00;95869.94;1286548;23;20027;-78
2021/03/19 01:11:52;;;;;;;37.57;25.00;;;;;;;-0.24;100.00;95870.34;1286617;23;20448;-77
2021/03/19 01:12:23;;;;;;;38.97;26.97;;;;;;;-0.21;100.00;95871.75;1286641;23;20001;-77
2021/03/19 01:12:53;;;;;;;37.07;25.87;;;;;;;-0.19;100.00;95873.16;1286452;23;20001;-77
2021/03/19 01:13:24;;;;;;;32.17;22.27;;;;;;;-0.17;100.00;95872.94;1286391;23;20019;-78
2021/03/19 01:13:55;;;;;;;34.72;23.42;;;;;;;-0.15;100.00;95870.94;1286153;23;20405;-77
2021/03/19 01:14:25;;;;;;;30.57;23.00;;;;;;;-0.11;100.00;95861.59;1285873;23;20004;-78
2021/03/19 01:14:56;;;;;;;34.73;24.37;;;;;;;-0.12;100.00;95862.63;1279592;23;20052;-77
2021/03/19 01:15:26;;;;;;;35.63;24.20;;;;;;;-0.12;100.00;95860.81;1280378;23;20004;-77
2021/03/19 01:15:57;;;;;;;31.03;20.63;;;;;;;-0.07;100.00;95870.69;1285702;23;19988;-77
2021/03/19 01:16:27;;;;;;;35.77;24.23;;;;;;;-0.13;100.00;95864.44;1286007;23;20004;-78
2021/03/19 01:16:58;;;;;;;34.97;24.07;;;;;;;-0.13;100.00;95864.44;1285285;23;20019;-77
2021/03/19 01:17:28;;;;;;;39.17;26.17;;;;;;;-0.11;100.00;95866.88;1284934;23;20047;-78
2021/03/19 01:17:58;;;;;;;36.80;24.33;;;;;;;-0.12;100.00;95860.00;1285020;23;19997;-78
2021/03/19 01:18:29;;;;;;;33.77;23.53;;;;;;;-0.15;100.00;95863.06;1285121;23;20032;-77
2021/03/19 01:19:01;;;;;;;35.73;24.50;;;;;;;-0.20;100.00;95861.03;1285843;23;20072;-77
2021/03/19 01:19:31;;;;;;;43.60;24.75;;;;;;;-0.26;100.00;95864.47;1285993;23;20048;-77
2021/03/19 01:20:06;;;;;;;38.17;26.27;;;;;;;-0.36;100.00;95858.81;1285733;23;20000;-77
2021/03/19 01:20:38;;;;;;;35.95;24.63;;;;;;;-0.39;100.00;95865.31;1285923;23;20561;-77
2021/03/19 01:21:08;;;;;;;33.92;24.20;;;;;;;-0.36;100.00;95858.81;1285960;23;20007;-78
2021/03/19 01:21:39;;;;;;;39.20;25.37;;;;;;;-0.39;100.00;95861.88;1285944;23;19997;-78
2021/03/19 01:22:09;;;;;;;38.43;25.27;;;;;;;-0.35;100.00;95858.66;1286844;23;20003;-78
2021/03/19 01:22:40;;;;;;;38.83;25.77;;;;;;;-0.35;100.00;95861.28;1285562;23;19997;-77
2021/03/19 01:23:11;;;;;;;36.20;23.90;;;;;;;-0.38;100.00;95860.88;1285644;23;19992;-77
2021/03/19 01:23:42;;;;;;;34.20;25.27;;;;;;;-0.36;100.00;95856.19;1286167;23;20244;-77
2021/03/19 01:24:13;;;;;;;36.38;25.15;;;;;;;-0.34;100.00;95856.81;1285666;23;20000;-77
2021/03/19 01:24:43;;;;;;;35.50;24.00;;;;;;;-0.40;100.00;95853.19;1285779;23;20001;-78
2021/03/19 01:25:18;;;;;;;35.03;24.13;;;;;;;-0.39;100.00;95854.81;1285416;23;20003;-78
2021/03/19 01:25:48;;;;;;;34.20;24.95;;;;;;;-0.41;100.00;95864.72;1285977;23;20054;-78
2021/03/19 01:26:19;;;;;;;35.20;25.50;;;;;;;-0.38;100.00;95858.25;1286386;23;20074;-77
2021/03/19 01:26:49;;;;;;;36.07;24.47;;;;;;;-0.34;100.00;95856.81;1286418;23;20000;-77
2021/03/19 01:27:19;;;;;;;35.30;23.63;;;;;;;-0.34;100.00;95851.56;1285940;23;19996;-76
2021/03/19 01:27:50;;;;;;;33.17;23.10;;;;;;;-0.34;100.00;95846.31;1285786;23;20004;-77
2021/03/19 01:28:20;;;;;;;31.40;23.20;;;;;;;-0.37;100.00;95850.16;1292435;23;20004;-75
2021/03/19 01:28:51;;;;;;;33.97;24.03;;;;;;;-0.32;100.00;95849.53;1293511;23;20020;-75
2021/03/19 01:29:21;;;;;;;32.30;23.50;;;;;;;-0.35;100.00;95853.41;1287111;23;20096;-75
2021/03/19 01:29:52;;;;;;;32.03;22.63;;;;;;;-0.31;100.00;95851.16;1286203;23;20000;-76
2021/03/19 01:30:24;;;;;;;31.23;23.03;;;;;;;-0.38;100.00;95853.78;1285349;23;19997;-76
2021/03/19 01:30:55;;;;;;;33.45;22.67;;;;;;;-0.39;100.00;95849.56;1284751;23;20186;-75
2021/03/19 01:31:25;;;;;;;33.37;23.83;;;;;;;-0.41;100.00;95850.75;1284766;23;20119;-75
2021/03/19 01:31:56;;;;;;;35.17;23.90;;;;;;;-0.44;100.00;95856.44;1284784;23;20009;-76
2021/03/19 01:32:26;;;;;;;36.90;25.03;;;;;;;-0.52;100.00;95858.25;1284831;23;20300;-76
2021/03/19 01:32:57;;;;;;;36.13;25.30;;;;;;;-0.57;100.00;95858.03;1284711;23;20365;-76
2021/03/19 01:33:27;;;;;;;35.17;23.73;;;;;;;-0.58;100.00;95856.44;1284611;23;20306;-75
2021/03/19 01:33:58;;;;;;;35.77;24.63;;;;;;;-0.58;100.00;95858.25;1284893;23;20418;-75
2021/03/19 01:34:28;;;;;;;35.92;24.10;;;;;;;-0.60;100.00;95849.78;1284886;23;20051;-75
2021/03/19 01:34:59;;;;;;;34.07;24.20;;;;;;;-0.56;100.00;95851.81;1284769;23;20070;-76
2021/03/19 01:35:31;;;;;;;34.77;25.23;;;;;;;-0.51;100.00;95851.19;1284602;23;20418;-75
2021/03/19 01:36:05;;;;;;;35.30;24.27;;;;;;;-0.47;100.00;95846.31;1284889;23;19992;-75
2021/03/19 01:36:36;;;;;;;35.58;24.33;;;;;;;-0.46;100.00;95848.78;1284627;23;20307;-77
2021/03/19 01:37:06;;;;;;;31.07;22.40;;;;;;;-0.43;100.00;95852.78;1278038;23;20008;-76
2021/03/19 01:37:37;;;;;;;30.90;23.63;;;;;;;-0.41;100.00;95851.59;1271867;23;20025;-76
2021/03/19 01:38:07;;;;;;;32.63;23.97;;;;;;;-0.39;100.00;95852.19;1272145;23;20005;-76
2021/03/19 01:38:38;;;;;;;31.88;23.48;;;;;;;-0.37;100.00;95851.97;1272492;23;20003;-76
2021/03/19 01:39:08;;;;;;;33.13;21.63;;;;;;;-0.34;100.00;95848.94;1284439;23;20001;-76
2021/03/19 01:39:39;;;;;;;32.47;22.77;;;;;;;-0.35;100.00;95842.88;1284694;23;19992;-76
2021/03/19 01:40:11;;;;;;;33.60;22.97;;;;;;;-0.44;100.00;95848.56;1284514;23;19997;-76
2021/03/19 01:40:46;;;;;;;33.72;23.80;;;;;;;-0.46;100.00;95846.16;1284879;23;19993;-76
2021/03/19 01:41:16;;;;;;;35.70;24.00;;;;;;;-0.41;100.00;95848.13;1284575;23;20028;-76
2021/03/19 01:41:48;;;;;;;32.63;22.83;;;;;;;-0.41;100.00;95851.59;1278075;23;19993;-77
2021/03/19 01:42:18;;;;;;;33.00;23.83;;;;;;;-0.44;100.00;95840.69;1278335;23;20017;-76
2021/03/19 01:42:59;;;;;;;36.40;24.23;;;;;;;-0.42;100.00;95844.69;1272228;23;19994;-76
2021/03/19 01:43:48;;;;;;;33.10;23.17;;;;;;;-0.43;100.00;95847.53;1280710;23;20005;-76
2021/03/19 01:44:42;;;;;;;33.60;22.50;;;;;;;-0.43;100.00;95852.78;1284336;23;20092;-77
2021/03/19 01:45:51;;;;;;;32.72;21.30;;;;;;;-0.41;100.00;95845.50;1284821;23;20083;-77
2021/03/19 01:46:58;;;;;;;31.38;21.25;;;;;;;-0.44;100.00;95841.47;1284066;23;20008;-76
2021/03/19 01:48:06;;;;;;;33.85;21.77;;;;;;;-0.45;100.00;95850.38;1284286;23;20000;-76
2021/03/19 01:49:13;;;;;;;36.92;23.00;;;;;;;-0.50;100.00;95841.50;1284629;23;20333;-77
2021/03/19 01:50:23;;;;;;;33.42;21.77;;;;;;;-0.47;100.00;95846.31;1284815;23;20439;-76
2021/03/19 01:51:30;;;;;;;34.35;21.88;;;;;;;-0.49;100.00;95838.66;1271459;23;20020;-76
2021/03/19 01:52:37;;;;;;;33.55;21.55;;;;;;;-0.53;100.00;95838.25;1286417;23;20075;-76
2021/03/19 01:53:45;;;;;;;36.63;22.58;;;;;;;-0.50;100.00;95841.50;1284491;23;20434;-76
2021/03/19 01:54:53;;;;;;;36.92;23.00;;;;;;;-0.62;100.00;95834.22;1284113;23;20007;-76
2021/03/19 01:56:00;;;;;;;39.03;22.88;;;;;;;-0.62;100.00;95831.59;1284359;23;20007;-77
2021/03/19 01:57:08;;;;;;;33.30;21.98;;;;;;;-0.58;100.00;95842.50;1284685;23;20442;-77
2021/03/19 01:58:16;;;;;;;35.90;21.40;;;;;;;-0.58;100.00;95835.44;1284640;23;20075;-76
2021/03/19 01:59:24;;;;;;;32.70;22.63;;;;;;;-0.64;100.00;95825.75;1284595;23;20012;-77
2021/03/19 02:00:31;;;;;;;39.85;23.20;;;;;;;-0.75;100.00;95834.25;1284518;23;20020;-76
2021/03/19 02:01:39;;;;;;;36.80;23.00;;;;;;;-0.73;100.00;95831.41;1284607;23;20013;-77
2021/03/19 02:02:47;;;;;;;37.00;23.23;;;;;;;-0.75;100.00;95831.63;1284710;23;20011;-77
2021/03/19 02:03:54;;;;;;;39.63;24.25;;;;;;;-0.75;100.00;95833.44;1283926;23;20557;-77
2021/03/19 02:05:01;;;;;;;34.20;23.10;;;;;;;-0.72;100.00;95831.19;1284312;23;20079;-77
2021/03/19 02:06:09;;;;;;;36.95;22.60;;;;;;;-0.72;100.00;95836.44;1290607;23;20007;-76
2021/03/19 02:07:16;;;;;;;37.42;24.38;;;;;;;-0.81;100.00;95829.81;1290482;23;20004;-77
2021/03/19 02:08:24;;;;;;;34.25;23.25;;;;;;;-0.78;100.00;95824.16;1284667;23;20460;-76
2021/03/19 02:09:32;;;;;;;38.08;24.90;;;;;;;-0.74;100.00;95827.19;1284655;23;20005;-76
2021/03/19 02:10:39;;;;;;;36.25;23.75;;;;;;;-0.78;100.00;95832.03;1284122;23;20027;-76
2021/03/19 02:11:47;;;;;;;40.40;24.08;;;;;;;-0.74;100.00;95825.34;1284311;23;20000;-76
2021/03/19 02:12:55;;;;;;;35.67;22.58;;;;;;;-0.81;100.00;95827.19;1284660;23;20032;-77
2021/03/19 02:14:02;;;;;;;38.90;24.17;;;;;;;-0.80;100.00;95831.44;1284431;23;20417;-76
2021/03/19 02:15:10;;;;;;;36.28;23.27;;;;;;;-0.76;100.00;95826.59;1284660;23;20013;-77
2021/03/19 02:16:18;;;;;;;36.92;23.70;;;;;;;-0.71;100.00;95824.16;1284577;23;20422;-76
2021/03/19 02:17:26;;;;;;;34.80;23.23;;;;;;;-0.77;100.00;95830.19;1284637;23;20330;-76
2021/03/19 02:18:33;;;;;;;38.42;23.27;;;;;;;-0.87;100.00;95827.97;1284626;23;20351;-77
2021/03/19 02:19:41;;;;;;;41.85;23.95;;;;;;;-0.94;100.00;95825.38;1284580;23;20004;-77
2021/03/19 02:20:48;;;;;;;37.50;23.67;;;;;;;-0.92;100.00;95828.59;1284248;23;20166;-77
2021/03/19 02:21:57;;;;;;;36.95;23.30;;;;;;;-0.86;100.00;95832.25;1277956;23;20033;-77
2021/03/19 02:23:04;;;;;;;40.38;24.27;;;;;;;-0.89;100.00;95827.38;1277909;23;20040;-77
2021/03/19 02:24:12;;;;;;;35.67;23.08;;;;;;;-0.90;100.00;95823.97;1284126;23;19996;-77
2021/03/19 02:25:20;;;;;;;36.88;23.80;;;;;;;-0.88;100.00;95824.53;1284032;23;20005;-77
2021/03/19 02:26:27;;;;;;;36.55;23.65;;;;;;;-0.85;100.00;95823.34;1284041;23;19993;-76
2021/03/19 02:27:35;;;;;;;39.90;24.70;;;;;;;-0.82;100.00;95838.69;1284831;23;20000;-76
2021/03/19 02:28:43;;;;;;;43.65;25.63;;;;;;;-0.76;100.00;95826.59;1284724;23;20314;-77
2021/03/19 02:29:50;;;;;;;38.78;24.42;;;;;;;-0.80;100.00;95826.19;1284672;23;20004;-77
2021/03/19 02:30:58;;;;;;;42.35;25.77;;;;;;;-0.85;100.00;95823.34;1284550;23;20005;-76
2021/03/19 02:31:41;;;;;;;47.67;23.50;;;;;;;-0.83;100.00;95835.25;1284716;23;20504;-77
2021/03/19 02:32:19;;;;;;;43.17;25.40;;;;;;;-0.84;100.00;95830.22;1284722;23;20013;-77
2021/03/19 02:32:49;;;;;;;40.20;25.27;;;;;;;-0.83;100.00;95826.56;1284657;23;19999;-76
2021/03/19 02:33:20;;;;;;;40.73;26.73;;;;;;;-0.87;100.00;95830.59;1284466;23;20004;-76
2021/03/19 02:33:55;;;;;;;42.53;28.27;;;;;;;-0.84;100.00;95824.97;1284511;23;20076;-77
2021/03/19 02:34:29;;;;;;;45.22;28.05;;;;;;;-0.85;100.00;95831.22;1284319;23;19997;-76
2021/03/19 02:35:03;;;;;;;44.35;28.23;;;;;;;-0.85;100.00;95839.09;1277853;23;20001;-77
2021/03/19 02:35:33;;;;;;;41.58;27.20;;;;;;;-0.85;100.00;95828.59;1271890;23;19997;-76
2021/03/19 02:36:04;;;;;;;40.13;26.17;;;;;;;-0.85;100.00;95834.66;1267371;23;20352;-77
2021/03/19 02:36:34;;;;;;;39.83;27.07;;;;;;;-0.84;100.00;95838.09;1271777;23;20486;-77
2021/03/19 02:37:09;;;;;;;45.77;28.87;;;;;;;-0.85;100.00;95829.41;1271799;23;20044;-77
2021/03/19 02:37:40;;;;;;;40.15;26.55;;;;;;;-0.85;100.00;95829.41;1280431;23;20001;-78
2021/03/19 02:38:10;;;;;;;41.83;26.97;;;;;;;-0.92;100.00;95828.59;1290640;23;20004;-77
2021/03/19 02:38:41;;;;;;;40.17;26.33;;;;;;;-0.96;100.00;95827.38;1290444;23;20023;-77
2021/03/19 02:39:11;;;;;;;41.07;27.10;;;;;;;-0.92;100.00;95828.59;1289589;23;20413;-79
2021/03/19 02:39:42;;;;;;;41.40;27.00;;;;;;;-0.94;100.00;95829.81;1284056;23;20375;-77
2021/03/19 02:40:18;;;;;;;45.50;27.70;;;;;;;-0.95;100.00;95826.38;1284383;23;20482;-77
2021/03/19 02:40:49;;;;;;;40.63;25.77;;;;;;;-0.94;100.00;95828.00;1284321;23;20004;-77
2021/03/19 02:41:19;;;;;;;40.20;26.87;;;;;;;-0.87;100.00;95827.97;1284375;23;20008;-77
2021/03/19 02:41:50;;;;;;;43.07;27.57;;;;;;;-0.87;100.00;95827.97;1284223;23;20426;-78
2021/03/19 02:42:23;;;;;;;42.33;26.70;;;;;;;-0.87;100.00;95830.59;1278179;23;20008;-78
2021/03/19 02:42:54;;;;;;;43.13;26.95;;;;;;;-0.91;100.00;95832.03;1278702;23;20395;-77
2021/03/19 02:43:24;;;;;;;38.43;27.13;;;;;;;-0.85;100.00;95832.03;1278085;23;20001;-78
2021/03/19 02:43:55;;;;;;;45.70;29.03;;;;;;;-0.85;100.00;95833.84;1278855;23;20001;-76
2021/03/19 02:44:25;;;;;;;46.97;29.23;;;;;;;-0.91;100.00;95834.66;1284162;23;20450;-77
2021/03/19 02:44:56;;;;;;;45.77;28.23;;;;;;;-0.88;100.00;95831.63;1284172;23;19997;-79
2021/03/19 02:45:26;;;;;;;39.33;27.33;;;;;;;-0.89;100.00;95837.88;1284656;23;19996;-76
2021/03/19 02:45:57;;;;;;;43.63;27.93;;;;;;;-0.87;100.00;95830.59;1284620;23;20005;-76
2021/03/19 02:46:27;;;;;;;46.27;30.20;;;;;;;-0.85;100.00;95829.41;1284214;23;20028;-76
2021/03/19 02:46:57;;;;;;;43.70;28.33;;;;;;;-0.87;100.00;95831.44;1284158;23;19996;-76
2021/03/19 02:47:28;;;;;;;43.67;27.30;;;;;;;-0.84;100.00;95832.84;1284229;23;19993;-76